createdAt,value
2016-04-15T00:00:23.644Z,0
2016-04-15T00:01:22.835Z,0
2016-04-15T00:02:23.618Z,0
2016-04-15T00:03:23.621Z,0
2016-04-15T00:04:23.609Z,0
2016-04-15T00:05:23.673Z,0
2016-04-15T00:06:23.660Z,0
2016-04-15T00:07:23.663Z,0
2016-04-15T00:08:23.712Z,0
2016-04-15T00:09:23.684Z,0
2016-04-15T00:10:23.718Z,0
2016-04-15T00:11:23.815Z,0
2016-04-15T00:12:23.818Z,0
2016-04-15T00:13:23.789Z,0
2016-04-15T00:14:23.823Z,0
2016-04-15T00:15:23.794Z,0
2016-04-15T00:16:23.781Z,0
2016-04-15T00:17:23.800Z,0
2016-04-15T00:18:23.817Z,0
2016-04-15T00:19:23.836Z,0
2016-04-15T00:20:23.885Z,0
2016-04-15T00:21:23.857Z,0
2016-04-15T00:22:23.875Z,0
2016-04-15T00:23:23.909Z,0
2016-04-15T00:24:23.896Z,0
2016-04-15T00:25:23.915Z,0
2016-04-15T00:26:23.964Z,0
2016-04-15T00:27:23.983Z,0
2016-04-15T00:28:24.001Z,0
2016-04-15T00:29:23.972Z,0
2016-04-15T00:30:24.006Z,0
2016-04-15T00:31:23.993Z,0
2016-04-15T00:32:23.888Z,0
2016-04-15T00:33:24.016Z,0
2016-04-15T00:34:24.080Z,0
2016-04-15T00:35:24.075Z,0
2016-04-15T00:36:24.062Z,0
2016-04-15T00:37:24.065Z,0
2016-04-15T00:38:24.129Z,0
2016-04-15T00:39:24.117Z,0
2016-04-15T00:40:24.120Z,0
2016-04-15T00:41:24.137Z,0
2016-04-15T00:42:24.125Z,0
2016-04-15T00:43:24.158Z,0
2016-04-15T00:44:24.208Z,0
2016-04-15T00:45:24.195Z,0
2016-04-15T00:46:24.198Z,0
2016-04-15T00:47:24.217Z,0
2016-04-15T00:48:24.220Z,0
2016-04-15T00:49:24.222Z,0
2016-04-15T00:50:24.256Z,0
2016-04-15T00:51:24.259Z,0
2016-04-15T00:52:24.277Z,0
2016-04-15T00:53:24.280Z,0
2016-04-15T00:54:24.297Z,0
2016-04-15T00:55:24.316Z,0
2016-04-15T00:56:24.333Z,0
2016-04-15T00:57:24.352Z,0
2016-04-15T00:58:24.339Z,0
2016-04-15T00:59:24.404Z,0
2016-04-15T01:00:24.391Z,0
2016-04-15T01:01:24.379Z,0
2016-04-15T01:02:24.413Z,0
2016-04-15T01:03:24.416Z,0
2016-04-15T01:04:24.434Z,0
2016-04-15T01:05:24.452Z,0
2016-04-15T01:06:24.485Z,0
2016-04-15T01:07:24.473Z,0
2016-04-15T01:08:24.507Z,0
2016-04-15T01:09:24.494Z,0
2016-04-15T01:10:24.559Z,0
2016-04-15T01:11:24.531Z,0
2016-04-15T01:12:24.548Z,0
2016-04-15T01:13:24.583Z,0
2016-04-15T01:14:24.617Z,0
2016-04-15T01:15:24.572Z,0
2016-04-15T01:16:24.920Z,0
2016-04-15T01:17:24.672Z,0
2016-04-15T01:18:24.675Z,0
2016-04-15T01:19:24.678Z,0
2016-04-15T01:20:24.695Z,0
2016-04-15T01:21:24.667Z,0
2016-04-15T01:22:24.685Z,0
2016-04-15T01:23:24.688Z,0
2016-04-15T01:24:24.722Z,0
2016-04-15T01:25:24.755Z,0
2016-04-15T01:26:24.759Z,0
2016-04-15T01:27:24.808Z,0
2016-04-15T01:28:24.749Z,0
2016-04-15T01:29:24.767Z,0
2016-04-15T01:30:24.816Z,0
2016-04-15T01:31:24.819Z,0
2016-04-15T01:32:24.852Z,0
2016-04-15T01:33:24.840Z,0
2016-04-15T01:34:24.827Z,0
2016-04-15T01:35:24.846Z,0
2016-04-15T01:36:24.863Z,0
2016-04-15T01:37:24.866Z,0
2016-04-15T01:38:24.931Z,0
2016-04-15T01:39:24.887Z,0
2016-04-15T01:40:24.921Z,0
2016-04-15T01:41:24.939Z,0
2016-04-15T01:42:24.943Z,0
2016-04-15T01:43:24.945Z,0
2016-04-15T01:44:24.963Z,0
2016-04-15T01:45:24.982Z,0
2016-04-15T01:46:25.000Z,0
2016-04-15T01:47:25.003Z,0
2016-04-15T01:48:25.020Z,0
2016-04-15T01:49:25.039Z,0
2016-04-15T01:50:25.089Z,0
2016-04-15T01:51:25.060Z,0
2016-04-15T01:52:25.063Z,0
2016-04-15T01:53:25.096Z,0
2016-04-15T01:54:25.114Z,0
2016-04-15T01:55:26.102Z,0
2016-04-15T01:56:25.151Z,0
2016-04-15T01:57:25.139Z,0
2016-04-15T01:58:25.157Z,0
2016-04-15T01:59:25.160Z,0
2016-04-15T02:00:25.178Z,0
2016-04-15T02:01:25.197Z,0
2016-04-15T02:02:25.199Z,0
2016-04-15T02:03:25.233Z,0
2016-04-15T02:04:25.235Z,0
2016-04-15T02:05:25.238Z,0
2016-04-15T02:06:25.257Z,0
2016-04-15T02:07:25.275Z,0
2016-04-15T02:08:25.294Z,0
2016-04-15T02:09:25.140Z,0
2016-04-15T02:10:25.315Z,0
2016-04-15T02:11:25.365Z,0
2016-04-15T02:12:25.351Z,0
2016-04-15T02:13:25.354Z,0
2016-04-15T02:14:25.215Z,0
2016-04-15T02:15:25.375Z,0
2016-04-15T02:16:25.378Z,0
2016-04-15T02:17:25.426Z,0
2016-04-15T02:18:25.429Z,0
2016-04-15T02:19:25.447Z,0
2016-04-15T02:20:25.434Z,0
2016-04-15T02:21:25.453Z,0
2016-04-15T02:22:25.471Z,0
2016-04-15T02:23:25.475Z,0
2016-04-15T02:24:25.492Z,0
2016-04-15T02:25:25.495Z,0
2016-04-15T02:26:25.530Z,0
2016-04-15T02:27:25.532Z,0
2016-04-15T02:28:25.550Z,0
2016-04-15T02:29:25.569Z,0
2016-04-15T02:30:25.571Z,0
2016-04-15T02:31:25.574Z,0
2016-04-15T02:32:25.624Z,0
2016-04-15T02:33:25.626Z,0
2016-04-15T02:34:25.629Z,0
2016-04-15T02:35:25.631Z,0
2016-04-15T02:36:25.649Z,0
2016-04-15T02:37:25.668Z,0
2016-04-15T02:38:25.671Z,0
2016-04-15T02:39:25.690Z,0
2016-04-15T02:40:25.707Z,0
2016-04-15T02:41:25.726Z,0
2016-04-15T02:42:25.729Z,0
2016-04-15T02:43:25.746Z,0
2016-04-15T02:44:25.765Z,0
2016-04-15T02:45:25.767Z,0
2016-04-15T02:46:25.786Z,0
2016-04-15T02:47:25.789Z,0
2016-04-15T02:48:25.807Z,0
2016-04-15T02:49:25.826Z,0
2016-04-15T02:50:25.845Z,0
2016-04-15T02:51:25.862Z,0
2016-04-15T02:52:25.850Z,0
2016-04-15T02:53:25.899Z,0
2016-04-15T02:54:25.886Z,0
2016-04-15T02:55:25.904Z,0
2016-04-15T02:56:25.906Z,0
2016-04-15T02:57:25.972Z,0
2016-04-15T02:58:25.944Z,0
2016-04-15T02:59:25.946Z,0
2016-04-15T03:00:25.964Z,0
2016-04-15T03:01:26.014Z,0
2016-04-15T03:02:25.986Z,0
2016-04-15T03:03:26.004Z,0
2016-04-15T03:04:26.022Z,0
2016-04-15T03:05:26.025Z,0
2016-04-15T03:06:26.043Z,0
2016-04-15T03:07:26.077Z,0
2016-04-15T03:08:26.064Z,0
2016-04-15T03:09:26.145Z,0
2016-04-15T03:10:26.132Z,0
2016-04-15T03:11:26.118Z,0
2016-04-15T03:12:26.137Z,0
2016-04-15T03:13:26.156Z,0
2016-04-15T03:14:26.158Z,0
2016-04-15T03:15:26.176Z,0
2016-04-15T03:16:26.179Z,0
2016-04-15T03:17:26.197Z,0
2016-04-15T03:18:26.215Z,0
2016-04-15T03:19:26.218Z,0
2016-04-15T03:20:26.237Z,0
2016-04-15T03:21:26.240Z,0
2016-04-15T03:22:26.273Z,0
2016-04-15T03:23:26.276Z,0
2016-04-15T03:24:26.279Z,0
2016-04-15T03:25:26.297Z,0
2016-04-15T03:26:26.316Z,0
2016-04-15T03:27:26.333Z,0
2016-04-15T03:28:26.367Z,0
2016-04-15T03:29:26.355Z,0
2016-04-15T03:30:26.389Z,0
2016-04-15T03:31:26.408Z,0
2016-04-15T03:32:26.410Z,0
2016-04-15T03:33:40.506Z,0
2016-04-15T03:34:26.416Z,0
2016-04-15T03:35:26.433Z,0
2016-04-15T03:36:26.468Z,0
2016-04-15T03:37:26.470Z,0
2016-04-15T03:38:26.473Z,0
2016-04-15T03:39:26.491Z,0
2016-04-15T03:40:26.510Z,0
2016-04-15T03:41:26.512Z,0
2016-04-15T03:42:26.546Z,0
2016-04-15T03:43:26.533Z,0
2016-04-15T03:44:26.582Z,0
2016-04-15T03:45:26.538Z,0
2016-04-15T03:46:26.588Z,0
2016-04-15T03:47:26.623Z,0
2016-04-15T03:48:26.609Z,0
2016-04-15T03:49:26.612Z,0
2016-04-15T03:50:26.630Z,0
2016-04-15T03:51:26.648Z,0
2016-04-15T03:52:26.651Z,0
2016-04-15T03:53:26.669Z,0
2016-04-15T03:54:26.703Z,0
2016-04-15T03:55:26.706Z,0
2016-04-15T03:56:26.724Z,0
2016-04-15T03:57:26.742Z,0
2016-04-15T03:58:26.744Z,0
2016-04-15T03:59:26.763Z,0
2016-04-15T04:00:26.813Z,0
2016-04-15T04:01:26.785Z,0
2016-04-15T04:02:26.803Z,0
2016-04-15T04:03:26.805Z,4
2016-04-15T04:04:26.839Z,4
2016-04-15T04:05:26.842Z,0
2016-04-15T04:06:26.876Z,0
2016-04-15T04:07:26.863Z,4
2016-04-15T04:08:26.882Z,0
2016-04-15T04:09:26.899Z,4
2016-04-15T04:10:26.918Z,4
2016-04-15T04:11:26.921Z,4
2016-04-15T04:12:26.940Z,4
2016-04-15T04:13:26.942Z,8
2016-04-15T04:14:26.960Z,8
2016-04-15T04:15:27.088Z,12
2016-04-15T04:16:27.012Z,12
2016-04-15T04:17:26.999Z,16
2016-04-15T04:18:27.034Z,20
2016-04-15T04:19:27.036Z,24
2016-04-15T04:20:27.070Z,28
2016-04-15T04:21:27.089Z,36
2016-04-15T04:22:27.075Z,40
2016-04-15T04:23:27.094Z,44
2016-04-15T04:24:27.096Z,48
2016-04-15T04:25:27.099Z,52
2016-04-15T04:26:27.133Z,60
2016-04-15T04:27:27.151Z,60
2016-04-15T04:28:27.170Z,64
2016-04-15T04:29:27.173Z,68
2016-04-15T04:30:27.222Z,64
2016-04-15T04:31:27.194Z,60
2016-04-15T04:32:27.197Z,60
2016-04-15T04:33:27.230Z,56
2016-04-15T04:34:27.233Z,56
2016-04-15T04:35:27.251Z,56
2016-04-15T04:36:27.254Z,60
2016-04-15T04:37:27.288Z,60
2016-04-15T04:38:27.290Z,64
2016-04-15T04:39:27.293Z,64
2016-04-15T04:40:27.154Z,68
2016-04-15T04:41:27.329Z,76
2016-04-15T04:42:27.363Z,76
2016-04-15T04:43:27.351Z,84
2016-04-15T04:44:27.369Z,80
2016-04-15T04:45:27.418Z,88
2016-04-15T04:46:27.406Z,92
2016-04-15T04:47:27.424Z,100
2016-04-15T04:48:27.426Z,112
2016-04-15T04:49:27.460Z,120
2016-04-15T04:50:27.447Z,124
2016-04-15T04:51:27.392Z,136
2016-04-15T04:52:27.532Z,152
2016-04-15T04:53:27.454Z,160
2016-04-15T04:54:28.253Z,168
2016-04-15T04:55:27.448Z,176
2016-04-15T04:56:27.592Z,184
2016-04-15T04:57:27.563Z,188
2016-04-15T04:58:27.566Z,188
2016-04-15T04:59:27.584Z,192
2016-04-15T05:00:27.775Z,196
2016-04-15T05:01:27.605Z,216
2016-04-15T05:02:27.639Z,240
2016-04-15T05:03:27.658Z,272
2016-04-15T05:04:27.675Z,312
2016-04-15T05:05:27.663Z,352
2016-04-15T05:06:27.524Z,384
2016-04-15T05:07:27.746Z,408
2016-04-15T05:08:27.718Z,424
2016-04-15T05:09:27.720Z,436
2016-04-15T05:10:27.739Z,444
2016-04-15T05:11:27.772Z,448
2016-04-15T05:12:27.775Z,432
2016-04-15T05:13:27.763Z,424
2016-04-15T05:14:27.780Z,420
2016-04-15T05:15:27.799Z,400
2016-04-15T05:16:27.802Z,396
2016-04-15T05:17:27.820Z,396
2016-04-15T05:18:27.854Z,400
2016-04-15T05:19:27.856Z,400
2016-04-15T05:20:27.859Z,408
2016-04-15T05:21:27.893Z,400
2016-04-15T05:22:27.895Z,400
2016-04-15T05:23:27.929Z,400
2016-04-15T05:24:27.932Z,400
2016-04-15T05:25:27.934Z,392
2016-04-15T05:26:28.000Z,384
2016-04-15T05:27:27.956Z,384
2016-04-15T05:28:27.975Z,388
2016-04-15T05:29:27.993Z,380
2016-04-15T05:30:27.995Z,372
2016-04-15T05:31:28.014Z,360
2016-04-15T05:32:28.047Z,352
2016-04-15T05:33:28.066Z,344
2016-04-15T05:34:28.053Z,344
2016-04-15T05:35:28.086Z,348
2016-04-15T05:36:28.090Z,352
2016-04-15T05:37:28.092Z,360
2016-04-15T05:38:28.127Z,364
2016-04-15T05:39:28.145Z,380
2016-04-15T05:40:28.132Z,396
2016-04-15T05:41:28.150Z,416
2016-04-15T05:42:28.168Z,440
2016-04-15T05:43:28.187Z,456
2016-04-15T05:44:28.205Z,464
2016-04-15T05:45:28.223Z,460
2016-04-15T05:46:28.226Z,456
2016-04-15T05:47:28.276Z,444
2016-04-15T05:48:28.262Z,436
2016-04-15T05:49:28.281Z,432
2016-04-15T05:50:28.284Z,432
2016-04-15T05:51:28.317Z,432
2016-04-15T05:52:28.321Z,432
2016-04-15T05:53:28.339Z,436
2016-04-15T05:54:28.357Z,440
2016-04-15T05:55:28.345Z,444
2016-04-15T05:56:28.362Z,448
2016-04-15T05:57:28.396Z,456
2016-04-15T05:58:28.398Z,452
2016-04-15T05:59:28.401Z,456
2016-04-15T06:00:28.670Z,456
2016-04-15T06:01:28.453Z,464
2016-04-15T06:02:28.488Z,484
2016-04-15T06:03:28.490Z,504
2016-04-15T06:04:28.493Z,524
2016-04-15T06:05:28.511Z,540
2016-04-15T06:06:28.513Z,552
2016-04-15T06:07:28.516Z,564
2016-04-15T06:08:28.550Z,580
2016-04-15T06:09:28.538Z,600
2016-04-15T06:10:28.400Z,624
2016-04-15T06:11:28.419Z,664
2016-04-15T06:12:28.593Z,724
2016-04-15T06:13:28.611Z,796
2016-04-15T06:14:28.629Z,868
2016-04-15T06:15:28.648Z,948
2016-04-15T06:16:28.682Z,1012
2016-04-15T06:17:28.543Z,1040
2016-04-15T06:18:28.671Z,1084
2016-04-15T06:19:28.690Z,1140
2016-04-15T06:20:28.693Z,1208
2016-04-15T06:21:28.576Z,1284
2016-04-15T06:22:28.767Z,1364
2016-04-15T06:23:28.754Z,1468
2016-04-15T06:24:28.757Z,1584
2016-04-15T06:25:28.775Z,1704
2016-04-15T06:26:28.794Z,1776
2016-04-15T06:27:28.832Z,1792
2016-04-15T06:28:28.819Z,1788
2016-04-15T06:29:28.837Z,1744
2016-04-15T06:30:28.855Z,1684
2016-04-15T06:31:28.890Z,1584
2016-04-15T06:32:28.861Z,1552
2016-04-15T06:33:28.896Z,1504
2016-04-15T06:34:28.930Z,1436
2016-04-15T06:35:28.932Z,1396
2016-04-15T06:36:28.935Z,1292
2016-04-15T06:37:28.969Z,1276
2016-04-15T06:38:28.956Z,1252
2016-04-15T06:39:28.974Z,1268
2016-04-15T06:40:28.992Z,1292
2016-04-15T06:41:28.995Z,1304
2016-04-15T06:42:29.029Z,1312
2016-04-15T06:43:29.031Z,1252
2016-04-15T06:44:29.050Z,1232
2016-04-15T06:45:29.114Z,1212
2016-04-15T06:46:29.117Z,1240
2016-04-15T06:47:29.105Z,1284
2016-04-15T06:48:29.091Z,1356
2016-04-15T06:49:29.111Z,1420
2016-04-15T06:50:29.128Z,1476
2016-04-15T06:51:29.162Z,1560
2016-04-15T06:52:29.165Z,1608
2016-04-15T06:53:29.386Z,1628
2016-04-15T06:54:29.186Z,1572
2016-04-15T06:55:29.204Z,1544
2016-04-15T06:56:29.222Z,1476
2016-04-15T06:57:29.241Z,1480
2016-04-15T06:58:29.275Z,1432
2016-04-15T06:59:29.278Z,1308
2016-04-15T07:00:29.328Z,1184
2016-04-15T07:01:29.299Z,1100
2016-04-15T07:02:29.302Z,1156
2016-04-15T07:03:29.319Z,1252
2016-04-15T07:04:29.338Z,1424
2016-04-15T07:05:29.372Z,1424
2016-04-15T07:06:29.390Z,1404
2016-04-15T07:07:29.393Z,1324
2016-04-15T07:08:29.412Z,1200
2016-04-15T07:09:29.414Z,1140
2016-04-15T07:10:29.432Z,1088
2016-04-15T07:11:29.465Z,1072
2016-04-15T07:12:29.500Z,1064
2016-04-15T07:13:29.487Z,1048
2016-04-15T07:14:29.521Z,1032
2016-04-15T07:15:29.509Z,1040
2016-04-15T07:16:29.511Z,1068
2016-04-15T07:17:29.545Z,1092
2016-04-15T07:18:29.548Z,1116
2016-04-15T07:19:29.567Z,1116
2016-04-15T07:20:29.600Z,1100
2016-04-15T07:21:29.607Z,1076
2016-04-15T07:22:29.657Z,1036
2016-04-15T07:23:29.628Z,1008
2016-04-15T07:24:29.662Z,988
2016-04-15T07:25:29.680Z,968
2016-04-15T07:26:29.682Z,952
2016-04-15T07:27:29.701Z,936
2016-04-15T07:28:29.585Z,924
2016-04-15T07:29:29.727Z,904
2016-04-15T07:30:29.746Z,872
2016-04-15T07:31:29.780Z,824
2016-04-15T07:32:29.782Z,764
2016-04-15T07:33:29.817Z,704
2016-04-15T07:34:29.803Z,648
2016-04-15T07:35:29.837Z,596
2016-04-15T07:36:29.887Z,560
2016-04-15T07:37:29.873Z,528
2016-04-15T07:38:29.892Z,504
2016-04-15T07:39:29.911Z,496
2016-04-15T07:40:29.913Z,492
2016-04-15T07:41:30.010Z,492
2016-04-15T07:42:29.950Z,480
2016-04-15T07:43:29.984Z,456
2016-04-15T07:44:29.987Z,432
2016-04-15T07:45:29.989Z,412
2016-04-15T07:46:30.008Z,396
2016-04-15T07:47:30.041Z,380
2016-04-15T07:48:30.060Z,372
2016-04-15T07:49:30.078Z,360
2016-04-15T07:50:30.096Z,352
2016-04-15T07:51:30.099Z,348
2016-04-15T07:52:30.101Z,352
2016-04-15T07:53:30.120Z,344
2016-04-15T07:54:30.123Z,336
2016-04-15T07:55:30.171Z,336
2016-04-15T07:56:30.160Z,340
2016-04-15T07:57:30.193Z,336
2016-04-15T07:58:30.227Z,328
2016-04-15T07:59:30.229Z,332
2016-04-15T08:00:30.232Z,336
2016-04-15T08:01:30.235Z,356
2016-04-15T08:02:30.253Z,364
2016-04-15T08:03:30.272Z,364
2016-04-15T08:04:30.290Z,360
2016-04-15T08:05:30.309Z,344
2016-04-15T08:06:30.374Z,328
2016-04-15T08:07:30.346Z,308
2016-04-15T08:08:30.364Z,288
2016-04-15T08:09:30.382Z,268
2016-04-15T08:10:30.400Z,244
2016-04-15T08:11:30.262Z,224
2016-04-15T08:12:30.406Z,216
2016-04-15T08:13:30.455Z,224
2016-04-15T08:14:30.442Z,248
2016-04-15T08:15:30.475Z,284
2016-04-15T08:16:30.479Z,328
2016-04-15T08:17:30.528Z,372
2016-04-15T08:18:30.516Z,400
2016-04-15T08:19:30.581Z,404
2016-04-15T08:20:30.552Z,400
2016-04-15T08:21:30.592Z,396
2016-04-15T08:22:30.579Z,396
2016-04-15T08:23:30.613Z,416
2016-04-15T08:24:30.631Z,460
2016-04-15T08:25:30.633Z,516
2016-04-15T08:26:30.667Z,548
2016-04-15T08:27:30.670Z,560
2016-04-15T08:28:30.688Z,576
2016-04-15T08:29:30.692Z,616
2016-04-15T08:30:30.725Z,672
2016-04-15T08:31:30.749Z,712
2016-04-15T08:32:30.810Z,732
2016-04-15T08:33:30.855Z,732
2016-04-15T08:34:30.931Z,724
2016-04-15T08:35:30.961Z,724
2016-04-15T08:36:31.019Z,748
2016-04-15T08:37:31.068Z,804
2016-04-15T08:38:31.086Z,884
2016-04-15T08:39:31.120Z,952
2016-04-15T08:40:31.153Z,1040
2016-04-15T08:41:31.186Z,1148
2016-04-15T08:42:31.225Z,1248
2016-04-15T08:43:31.249Z,1332
2016-04-15T08:44:31.242Z,1380
2016-04-15T08:45:31.266Z,1316
2016-04-15T08:46:31.304Z,1156
2016-04-15T08:47:31.325Z,1032
2016-04-15T08:48:31.344Z,1004
2016-04-15T08:49:31.334Z,1040
2016-04-15T08:50:31.400Z,1032
2016-04-15T08:51:31.374Z,968
2016-04-15T08:52:31.394Z,908
2016-04-15T08:53:31.412Z,964
2016-04-15T08:54:31.432Z,1116
2016-04-15T08:55:31.450Z,1352
2016-04-15T08:56:31.485Z,1728
2016-04-15T08:57:31.472Z,1856
2016-04-15T08:58:31.491Z,1656
2016-04-15T08:59:31.510Z,1372
2016-04-15T09:00:31.544Z,1160
2016-04-15T09:01:31.672Z,1040
2016-04-15T09:02:31.893Z,1020
2016-04-15T09:03:31.584Z,1080
2016-04-15T09:04:31.634Z,1188
2016-04-15T09:05:31.621Z,1296
2016-04-15T09:06:31.639Z,1396
2016-04-15T09:07:31.673Z,1612
2016-04-15T09:08:31.659Z,1644
2016-04-15T09:09:31.678Z,1736
2016-04-15T09:10:31.697Z,1800
2016-04-15T09:11:31.714Z,2068
2016-04-15T09:12:31.764Z,2236
2016-04-15T09:13:31.735Z,2184
2016-04-15T09:14:31.769Z,2180
2016-04-15T09:15:31.772Z,2132
2016-04-15T09:16:31.728Z,2056
2016-04-15T09:17:31.794Z,1904
2016-04-15T09:18:31.843Z,1760
2016-04-15T09:19:31.830Z,1664
2016-04-15T09:20:31.879Z,1540
2016-04-15T09:21:31.882Z,1416
2016-04-15T09:22:31.885Z,1324
2016-04-15T09:23:31.935Z,1312
2016-04-15T09:24:32.187Z,1312
2016-04-15T09:25:31.956Z,1324
2016-04-15T09:26:31.974Z,1340
2016-04-15T09:27:31.977Z,1344
2016-04-15T09:28:31.995Z,1340
2016-04-15T09:29:32.013Z,1336
2016-04-15T09:30:32.032Z,1340
2016-04-15T09:31:32.128Z,1352
2016-04-15T09:32:32.068Z,1348
2016-04-15T09:33:32.086Z,1328
2016-04-15T09:34:32.104Z,1280
2016-04-15T09:35:32.123Z,1196
2016-04-15T09:36:32.142Z,1104
2016-04-15T09:37:32.145Z,1036
2016-04-15T09:38:32.193Z,1012
2016-04-15T09:39:32.181Z,992
2016-04-15T09:40:32.214Z,972
2016-04-15T09:41:32.248Z,952
2016-04-15T09:42:32.236Z,944
2016-04-15T09:43:32.253Z,940
2016-04-15T09:44:32.272Z,924
2016-04-15T09:45:32.305Z,920
2016-04-15T09:46:32.355Z,956
2016-04-15T09:47:32.327Z,1016
2016-04-15T09:48:32.345Z,1080
2016-04-15T09:49:32.380Z,1140
2016-04-15T09:50:32.397Z,1200
2016-04-15T09:51:32.400Z,1292
2016-04-15T09:52:32.418Z,1444
2016-04-15T09:53:32.421Z,1620
2016-04-15T09:54:32.455Z,1772
2016-04-15T09:55:32.474Z,2060
2016-04-15T09:56:32.508Z,1960
2016-04-15T09:57:32.495Z,1952
2016-04-15T09:58:32.544Z,1884
2016-04-15T09:59:32.532Z,1860
2016-04-15T10:00:32.549Z,1796
2016-04-15T10:01:32.521Z,1692
2016-04-15T10:02:32.601Z,1528
2016-04-15T10:03:32.604Z,1408
2016-04-15T10:04:32.623Z,1256
2016-04-15T10:05:32.625Z,1108
2016-04-15T10:06:32.659Z,988
2016-04-15T10:07:32.678Z,900
2016-04-15T10:08:32.696Z,832
2016-04-15T10:09:32.699Z,776
2016-04-15T10:10:32.764Z,760
2016-04-15T10:11:32.736Z,776
2016-04-15T10:12:32.753Z,804
2016-04-15T10:13:32.803Z,832
2016-04-15T10:14:32.790Z,872
2016-04-15T10:15:32.808Z,948
2016-04-15T10:16:32.889Z,1024
2016-04-15T10:17:32.844Z,1080
2016-04-15T10:18:32.894Z,1100
2016-04-15T10:19:32.866Z,1072
2016-04-15T10:20:32.900Z,1012
2016-04-15T10:21:32.919Z,920
2016-04-15T10:22:32.921Z,812
2016-04-15T10:23:32.939Z,752
2016-04-15T10:24:32.957Z,708
2016-04-15T10:25:32.991Z,648
2016-04-15T10:26:33.041Z,596
2016-04-15T10:27:33.029Z,596
2016-04-15T10:28:33.016Z,664
2016-04-15T10:29:33.035Z,728
2016-04-15T10:30:35.208Z,724
2016-04-15T10:31:33.086Z,680
2016-04-15T10:32:33.104Z,684
2016-04-15T10:33:33.107Z,756
2016-04-15T10:34:33.140Z,788
2016-04-15T10:35:33.143Z,788
2016-04-15T10:36:33.162Z,788
2016-04-15T10:37:33.195Z,792
2016-04-15T10:38:33.199Z,812
2016-04-15T10:39:33.232Z,836
2016-04-15T10:40:33.235Z,900
2016-04-15T10:41:33.237Z,1000
2016-04-15T10:42:33.272Z,1056
2016-04-15T10:43:33.275Z,1044
2016-04-15T10:44:33.292Z,984
2016-04-15T10:45:33.295Z,920
2016-04-15T10:46:33.329Z,856
2016-04-15T10:47:33.363Z,816
2016-04-15T10:48:33.366Z,852
2016-04-15T10:49:33.383Z,956
2016-04-15T10:50:33.403Z,1112
2016-04-15T10:51:33.405Z,1252
2016-04-15T10:52:33.424Z,1304
2016-04-15T10:53:33.441Z,1312
2016-04-15T10:54:33.476Z,1280
2016-04-15T10:55:34.088Z,1264
2016-04-15T10:56:33.482Z,1300
2016-04-15T10:57:33.516Z,1376
2016-04-15T10:58:33.550Z,1436
2016-04-15T10:59:33.552Z,1404
2016-04-15T11:00:33.555Z,1316
2016-04-15T11:01:33.589Z,1324
2016-04-15T11:02:33.591Z,1388
2016-04-15T11:03:33.610Z,1392
2016-04-15T11:04:33.628Z,1328
2016-04-15T11:05:33.631Z,1284
2016-04-15T11:06:33.664Z,1260
2016-04-15T11:07:33.682Z,1208
2016-04-15T11:08:33.717Z,1172
2016-04-15T11:09:33.720Z,1092
2016-04-15T11:10:33.738Z,988
2016-04-15T11:11:33.740Z,920
2016-04-15T11:12:33.759Z,964
2016-04-15T11:13:33.793Z,968
2016-04-15T11:14:33.795Z,1000
2016-04-15T11:15:33.814Z,1080
2016-04-15T11:16:33.831Z,1112
2016-04-15T11:17:33.881Z,1184
2016-04-15T11:18:33.883Z,1208
2016-04-15T11:19:33.871Z,1192
2016-04-15T11:20:33.905Z,1204
2016-04-15T11:21:33.908Z,1236
2016-04-15T11:22:33.927Z,1304
2016-04-15T11:23:33.944Z,1320
2016-04-15T11:24:34.057Z,1348
2016-04-15T11:25:33.996Z,1352
2016-04-15T11:26:33.999Z,1348
2016-04-15T11:27:34.018Z,1388
2016-04-15T11:28:34.036Z,1356
2016-04-15T11:29:34.071Z,1332
2016-04-15T11:30:34.089Z,1260
2016-04-15T11:31:34.091Z,1116
2016-04-15T11:32:34.110Z,984
2016-04-15T11:33:34.127Z,1024
2016-04-15T11:34:34.146Z,960
2016-04-15T11:35:35.852Z,908
2016-04-15T11:36:37.870Z,976
2016-04-15T11:37:34.185Z,1032
2016-04-15T11:38:34.219Z,1104
2016-04-15T11:39:34.238Z,1164
2016-04-15T11:40:34.256Z,1292
2016-04-15T11:41:36.634Z,1360
2016-04-15T11:42:34.261Z,1376
2016-04-15T11:43:34.279Z,1412
2016-04-15T11:44:34.314Z,1448
2016-04-15T11:45:34.331Z,1380
2016-04-15T11:46:34.350Z,1224
2016-04-15T11:47:34.384Z,1108
2016-04-15T11:48:34.371Z,1040
2016-04-15T11:49:34.374Z,1032
2016-04-15T11:50:34.408Z,1056
2016-04-15T11:51:34.410Z,1100
2016-04-15T11:53:34.447Z,1160
2016-04-15T11:54:34.465Z,1104
2016-04-15T11:55:34.483Z,988
2016-04-15T11:56:34.502Z,896
2016-04-15T11:57:34.521Z,892
2016-04-15T11:58:34.539Z,896
2016-04-15T11:59:34.557Z,880
2016-04-15T12:00:34.575Z,844
2016-04-15T12:01:34.577Z,844
2016-04-15T12:02:34.612Z,848
2016-04-15T12:03:34.629Z,760
2016-04-15T12:04:34.632Z,692
2016-04-15T12:05:34.667Z,736
2016-04-15T12:06:34.670Z,888
2016-04-15T12:07:34.687Z,1060
2016-04-15T12:08:34.988Z,1076
2016-04-15T12:09:34.756Z,916
2016-04-15T12:10:34.745Z,760
2016-04-15T12:11:34.748Z,704
2016-04-15T12:12:34.766Z,676
2016-04-15T12:13:34.800Z,656
2016-04-15T12:14:34.802Z,684
2016-04-15T12:15:34.836Z,768
2016-04-15T12:16:34.729Z,852
2016-04-15T12:17:34.639Z,916
2016-04-15T12:18:34.875Z,912
2016-04-15T12:19:34.894Z,916
2016-04-15T12:20:34.897Z,892
2016-04-15T12:21:34.930Z,856
2016-04-15T12:22:34.777Z,808
2016-04-15T12:23:34.967Z,752
2016-04-15T12:24:35.001Z,676
2016-04-15T12:25:35.014Z,636
2016-04-15T12:26:35.000Z,724
2016-04-15T12:27:35.034Z,892
2016-04-15T12:28:35.037Z,956
2016-04-15T12:29:35.056Z,852
2016-04-15T12:30:35.090Z,804
2016-04-15T12:31:35.092Z,804
2016-04-15T12:32:35.111Z,712
2016-04-15T12:33:35.128Z,592
2016-04-15T12:34:35.147Z,536
2016-04-15T12:35:35.166Z,512
2016-04-15T12:36:35.184Z,516
2016-04-15T12:37:35.187Z,560
2016-04-15T12:38:35.220Z,604
2016-04-15T12:39:35.239Z,648
2016-04-15T12:40:35.257Z,620
2016-04-15T12:41:35.260Z,620
2016-04-15T12:42:35.278Z,740
2016-04-15T12:43:35.280Z,820
2016-04-15T12:44:35.299Z,848
2016-04-15T12:45:35.348Z,852
2016-04-15T12:46:35.367Z,864
2016-04-15T12:47:35.369Z,940
2016-04-15T12:48:35.372Z,996
2016-04-15T12:49:35.438Z,1168
2016-04-15T12:50:35.424Z,1280
2016-04-15T12:51:35.427Z,1404
2016-04-15T12:52:35.445Z,1432
2016-04-15T12:53:35.464Z,1432
2016-04-15T12:54:35.497Z,1392
2016-04-15T12:55:35.500Z,1280
2016-04-15T12:56:35.503Z,1252
2016-04-15T12:57:35.553Z,1244
2016-04-15T12:58:35.399Z,1308
2016-04-15T12:59:35.573Z,1408
2016-04-15T13:00:35.576Z,1516
2016-04-15T13:01:35.594Z,1588
2016-04-15T13:02:35.659Z,1520
2016-04-15T13:03:35.631Z,1288
2016-04-15T13:04:35.665Z,1228
2016-04-15T13:05:35.668Z,1144
2016-04-15T13:06:35.687Z,1040
2016-04-15T13:07:35.689Z,1020
2016-04-15T13:08:35.723Z,908
2016-04-15T13:09:35.757Z,812
2016-04-15T13:10:35.744Z,764
2016-04-15T13:11:35.777Z,788
2016-04-15T13:12:35.780Z,848
2016-04-15T13:13:35.799Z,892
2016-04-15T13:14:35.833Z,992
2016-04-15T13:15:35.867Z,1044
2016-04-15T13:16:35.854Z,1008
2016-04-15T13:17:36.075Z,976
2016-04-15T13:18:35.896Z,1008
2016-04-15T13:19:35.898Z,1076
2016-04-15T13:20:35.932Z,1144
2016-04-15T13:21:35.934Z,1196
2016-04-15T13:22:35.968Z,1172
2016-04-15T13:23:36.018Z,1128
2016-04-15T13:24:35.990Z,1008
2016-04-15T13:25:36.008Z,952
2016-04-15T13:26:36.026Z,1012
2016-04-15T13:27:36.045Z,1036
2016-04-15T13:28:36.062Z,1096
2016-04-15T13:29:36.081Z,1120
2016-04-15T13:30:36.114Z,1116
2016-04-15T13:31:36.117Z,1168
2016-04-15T13:32:36.198Z,1128
2016-04-15T13:33:36.155Z,1172
2016-04-15T13:34:36.173Z,1160
2016-04-15T13:35:36.191Z,1036
2016-04-15T13:36:36.209Z,896
2016-04-15T13:37:36.212Z,824
2016-04-15T13:38:36.230Z,860
2016-04-15T13:39:36.249Z,888
2016-04-15T13:40:36.266Z,828
2016-04-15T13:41:36.285Z,796
2016-04-15T13:42:36.287Z,852
2016-04-15T13:43:36.321Z,944
2016-04-15T13:44:36.371Z,988
2016-04-15T13:45:36.343Z,992
2016-04-15T13:46:36.377Z,960
2016-04-15T13:47:36.583Z,988
2016-04-15T13:48:36.398Z,948
2016-04-15T13:49:36.432Z,816
2016-04-15T13:50:36.450Z,752
2016-04-15T13:51:36.469Z,716
2016-04-15T13:52:36.487Z,696
2016-04-15T13:53:36.505Z,736
2016-04-15T13:54:36.367Z,756
2016-04-15T13:55:36.526Z,716
2016-04-15T13:56:36.560Z,660
2016-04-15T13:57:36.578Z,664